Time;durP1;ratioP1;P1;durP2;ratioP2;P2;SDS_P1;SDS_P2;PMS_P1;PMS_P2;Temp;Humidity;BMP_temperature;BMP_pressure;BME280_temperature;BME280_humidity;BME280_pressure;Samples;Min_cycle;Max_cycle;Signal;HPM_P1;HPM_P2
2023/08/29 00:08:59;;;;;;;1.17;0.63;;;;;;;;;;20772319;28;21066;-68
2023/08/29 00:19:01;;;;;;;0.97;0.67;;;;;;;;;;20773883;28;20242;-69
2023/08/29 00:29:03;;;;;;;1.20;0.60;;;;;;;;;;20794621;28;20223;-68
2023/08/29 00:39:05;;;;;;;0.60;0.60;;;;;;;;;;20873139;23;20767;-73
2023/08/29 00:49:07;;;;;;;1.47;0.80;;;;;;;;;;20959925;28;20224;-73
2023/08/29 00:59:08;;;;;;;0.87;0.60;;;;;;;;;;20917777;28;20210;-73
2023/08/29 01:09:10;;;;;;;1.00;0.70;;;;;;;;;;20924637;28;20638;-73
2023/08/29 01:19:15;;;;;;;1.40;0.73;;;17.60;99.90;;;;;;20898865;28;20264;-73
2023/08/29 01:29:17;;;;;;;1.07;0.73;;;;;;;;;;20864375;28;20659;-73
2023/08/29 01:39:19;;;;;;;1.70;0.70;;;;;;;;;;20881448;28;20251;-73
2023/08/29 01:49:21;;;;;;;2.07;0.70;;;;;;;;;;20931470;28;20229;-73
2023/08/29 01:59:22;;;;;;;1.07;0.80;;;;;;;;;;20940257;28;20582;-73
2023/08/29 02:09:24;;;;;;;1.03;0.83;;;;;;;;;;20874557;28;20653;-73
2023/08/29 02:19:28;;;;;;;1.50;0.83;;;;;;;;;;20942921;28;20225;-73
2023/08/29 02:29:29;;;;;;;1.00;0.70;;;;;;;;;;20876971;28;20225;-73
2023/08/29 02:39:31;;;;;;;3.80;1.37;;;;;;;;;;20891547;28;20218;-73
2023/08/29 02:49:33;;;;;;;1.00;0.60;;;;;;;;;;20958486;28;20230;-73
2023/08/29 02:59:35;;;;;;;1.50;0.80;;;;;;;;;;20891528;28;20221;-74
2023/08/29 03:09:37;;;;;;;1.83;1.13;;;;;;;;;;20907062;28;20246;-73
2023/08/29 03:19:41;;;;;;;1.50;0.90;;;;;;;;;;20938936;28;20213;-74
2023/08/29 03:29:43;;;;;;;2.03;1.10;;;;;;;;;;20929682;28;20201;-74
2023/08/29 03:39:45;;;;;;;1.67;1.20;;;;;;;;;;20950161;28;20753;-73
2023/08/29 03:49:47;;;;;;;3.13;1.30;;;;;;;;;;20946132;28;20217;-73
2023/08/29 03:59:48;;;;;;;2.03;1.30;;;;;;;;;;20886622;28;20287;-74
2023/08/29 04:09:51;;;;;;;1.40;1.07;;;;;;;;;;20900644;28;20225;-73
2023/08/29 04:19:52;;;;;;;1.93;1.23;;;;;;;;;;20889808;28;20241;-73
2023/08/29 04:29:54;;;;;;;1.80;1.00;;;;;;;;;;20960740;28;20230;-73
2023/08/29 04:39:55;;;;;;;1.17;0.90;;;;;;;;;;20911792;28;20221;-73
2023/08/29 04:50:01;;;;;;;0.93;0.80;;;17.20;99.90;;;;;;20939111;28;20222;-73
2023/08/29 05:00:09;;;;;;;1.20;0.90;;;17.20;99.90;;;;;;20924612;28;20290;-73
2023/08/29 05:10:11;;;;;;;1.27;0.80;;;;;;;;;;20864892;28;20213;-73
2023/08/29 05:20:14;;;;;;;2.57;0.80;;;;;;;;;;20902669;28;20232;-74
2023/08/29 05:30:16;;;;;;;3.13;0.83;;;;;;;;;;20919972;28;20770;-74
2023/08/29 05:40:18;;;;;;;1.00;0.80;;;;;;;;;;20879946;28;20221;-74
2023/08/29 05:50:20;;;;;;;1.63;0.87;;;;;;;;;;20959227;28;20266;-73
2023/08/29 06:00:21;;;;;;;1.73;1.00;;;;;;;;;;20894185;28;20225;-73
2023/08/29 06:10:23;;;;;;;1.50;0.90;;;;;;;;;;20974193;28;20243;-74
2023/08/29 06:20:25;;;;;;;1.83;1.10;;;;;;;;;;20969446;28;20284;-75
2023/08/29 06:30:27;;;;;;;1.30;0.97;;;;;;;;;;20909703;28;20271;-73
2023/08/29 06:40:29;;;;;;;1.03;0.80;;;;;;;;;;20949396;28;20224;-75
2023/08/29 06:50:31;;;;;;;2.87;1.00;;;;;;;;;;20991331;22;20233;-69
2023/08/29 07:00:33;;;;;;;1.77;0.90;;;;;;;;;;20954636;28;20224;-68
2023/08/29 07:10:35;;;;;;;1.73;1.00;;;17.50;99.90;;;;;;20921827;28;20222;-68
2023/08/29 07:20:37;;;;;;;1.57;0.80;;;;;;;;;;20889565;28;20225;-68
2023/08/29 07:30:44;;;;;;;1.40;0.97;;;;;;;;;;20939136;28;20209;-68
2023/08/29 07:40:46;;;;;;;1.63;0.93;;;18.10;99.90;;;;;;20954431;28;20224;-68
2023/08/29 07:50:48;;;;;;;1.30;0.77;;;;;;;;;;20934288;28;20229;-68
2023/08/29 08:00:49;;;;;;;1.93;0.80;;;;;;;;;;20874223;28;20264;-69
2023/08/29 08:10:51;;;;;;;1.53;0.87;;;;;;;;;;20938098;28;20298;-68
2023/08/29 08:20:53;;;;;;;1.60;0.80;;;;;;;;;;20937823;28;20270;-69
2023/08/29 08:30:55;;;;;;;0.93;0.70;;;;;;;;;;20953147;28;20217;-68
2023/08/29 08:40:57;;;;;;;3.40;0.80;;;;;;;;;;20968564;28;20255;-68
2023/08/29 08:51:00;;;;;;;1.30;0.80;;;;;;;;;;20909635;28;20301;-68
2023/08/29 09:01:02;;;;;;;2.00;0.60;;;;;;;;;;20912292;28;20213;-68
2023/08/29 09:11:05;;;;;;;1.00;0.63;;;;;;;;;;20950478;28;20262;-68
2023/08/29 09:21:07;;;;;;;1.70;0.70;;;;;;;;;;20933508;28;20274;-69
2023/08/29 09:31:10;;;;;;;2.03;0.90;;;;;;;;;;20960027;28;20274;-69
2023/08/29 09:41:14;;;;;;;2.70;0.50;;;;;;;;;;20966317;28;20356;-69
2023/08/29 09:51:16;;;;;;;1.03;0.80;;;;;;;;;;20921002;28;20307;-69
2023/08/29 10:01:20;;;;;;;1.37;0.60;;;19.40;99.90;;;;;;20881931;28;20222;-69
2023/08/29 10:11:22;;;;;;;1.53;0.77;;;19.80;99.90;;;;;;20865066;28;20288;-68
2023/08/29 10:21:24;;;;;;;2.17;0.73;;;;;;;;;;20880363;28;20252;-68
2023/08/29 10:31:27;;;;;;;1.87;0.77;;;;;;;;;;20925963;28;20263;-68
2023/08/29 10:41:44;;;;;;;1.60;0.80;;;19.90;99.90;;;;;;20975595;28;20251;-69
2023/08/29 10:52:06;;;;;;;1.43;0.73;;;;;;;;;;20894160;28;20254;-70
2023/08/29 11:02:41;;;;;;;1.70;1.00;;;;;;;;;;20876930;28;20597;-69
2023/08/29 11:13:09;;;;;;;1.23;0.70;;;20.90;99.90;;;;;;20918236;28;20272;-69
2023/08/29 11:23:12;;;;;;;1.17;0.60;;;21.00;99.90;;;;;;20951739;28;20228;-69
2023/08/29 11:33:14;;;;;;;0.80;0.57;;;21.10;99.90;;;;;;20950632;28;20219;-69
2023/08/29 11:43:16;;;;;;;1.30;0.70;;;;;;;;;;20922116;28;20285;-69
2023/08/29 11:53:31;;;;;;;2.30;0.80;;;21.00;99.90;;;;;;20992678;28;20276;-69
2023/08/29 12:03:39;;;;;;;1.90;0.70;;;;;;;;;;21014798;28;20500;-69
2023/08/29 12:13:57;;;;;;;2.40;0.70;;;;;;;;;;21017790;28;20264;-69
2023/08/29 12:24:09;;;;;;;2.87;0.80;;;;;;;;;;20930737;28;20284;-69
2023/08/29 12:34:11;;;;;;;0.93;0.43;;;;;;;;;;21005050;28;20629;-69
2023/08/29 12:44:13;;;;;;;0.80;0.60;;;;;;;;;;21022651;23;20252;-66
2023/08/29 12:54:15;;;;;;;2.10;0.80;;;;;;;;;;20811850;28;20228;-69
2023/08/29 13:04:17;;;;;;;1.30;0.60;;;;;;;;;;20766239;28;20233;-68
2023/08/29 13:14:19;;;;;;;2.60;0.60;;;;;;;;;;20844635;28;20219;-67
2023/08/29 13:24:21;;;;;;;0.73;0.50;;;;;;;;;;20847101;28;20231;-67
2023/08/29 13:34:23;;;;;;;0.60;0.50;;;;;;;;;;20862955;28;20289;-67
2023/08/29 13:44:25;;;;;;;0.63;0.60;;;;;;;;;;20846417;28;20222;-67
2023/08/29 13:54:27;;;;;;;1.83;1.10;;;;;;;;;;20846804;28;20686;-68
2023/08/29 14:04:29;;;;;;;1.33;0.87;;;;;;;;;;20846035;28;20228;-68
2023/08/29 14:14:31;;;;;;;1.00;0.77;;;;;;;;;;20850930;28;20212;-68
2023/08/29 14:24:32;;;;;;;1.73;0.80;;;;;;;;;;20892578;28;20591;-68
2023/08/29 14:34:34;;;;;;;0.87;0.60;;;;;;;;;;20858667;28;20277;-68
2023/08/29 14:44:36;;;;;;;2.80;0.90;;;;;;;;;;20858284;28;20302;-68
2023/08/29 14:54:38;;;;;;;0.80;0.60;;;;;;;;;;20872279;28;20672;-68
2023/08/29 15:04:40;;;;;;;1.00;0.67;;;;;;;;;;20847279;28;20239;-68
2023/08/29 15:14:42;;;;;;;0.50;0.50;;;;;;;;;;20849333;28;20634;-68
2023/08/29 15:24:44;;;;;;;0.60;0.50;;;;;;;;;;20854464;28;20276;-69
2023/08/29 15:34:45;;;;;;;1.00;0.40;;;;;;;;;;20839214;28;20266;-66
2023/08/29 15:44:47;;;;;;;0.83;0.43;;;;;;;;;;20854143;28;20273;-67
2023/08/29 15:54:51;;;;;;;0.90;0.60;;;20.40;99.90;;;;;;20853769;28;20565;-67
2023/08/29 16:04:53;;;;;;;0.30;0.30;;;;;;;;;;20868917;28;20583;-67
2023/08/29 16:14:55;;;;;;;0.50;0.33;;;;;;;;;;20864017;28;20284;-66
2023/08/29 16:24:57;;;;;;;0.50;0.50;;;;;;;;;;20877114;28;20299;-66
2023/08/29 16:34:59;;;;;;;0.40;0.40;;;;;;;;;;20854361;28;20687;-67
2023/08/29 16:45:01;;;;;;;0.50;0.50;;;;;;;;;;20867786;28;20244;-67
2023/08/29 16:55:03;;;;;;;0.67;0.53;;;;;;;;;;20844181;28;20215;-69
2023/08/29 17:05:05;;;;;;;0.67;0.43;;;;;;;;;;20866741;28;20288;-70
2023/08/29 17:15:08;;;;;;;0.63;0.40;;;;;;;;;;20876156;28;20609;-70
2023/08/29 17:25:10;;;;;;;0.43;0.30;;;;;;;;;;20874294;28;20227;-69
2023/08/29 17:35:12;;;;;;;0.37;0.37;;;;;;;;;;20873382;28;20236;-68
2023/08/29 17:45:15;;;;;;;1.73;0.50;;;;;;;;;;20847066;28;20250;-67
2023/08/29 17:55:17;;;;;;;1.17;0.60;;;;;;;;;;20857009;28;20266;-68
2023/08/29 18:05:19;;;;;;;1.43;0.50;;;;;;;;;;20840898;28;20242;-68
2023/08/29 18:15:21;;;;;;;3.67;0.80;;;;;;;;;;20889218;28;20584;-68
2023/08/29 18:25:23;;;;;;;0.73;0.50;;;;;;;;;;20859005;28;20293;-68
2023/08/29 18:35:25;;;;;;;0.77;0.43;;;;;;;;;;20874151;28;20230;-68
2023/08/29 18:45:26;;;;;;;0.80;0.60;;;;;;;;;;20843768;28;20702;-68
2023/08/29 18:55:29;;;;;;;0.70;0.50;;;;;;;;;;20852651;23;20317;-80
2023/08/29 19:05:31;;;;;;;1.00;0.50;;;;;;;;;;20812722;28;20243;-80
2023/08/29 19:15:33;;;;;;;0.80;0.53;;;;;;;;;;20768838;28;20260;-80
2023/08/29 19:25:35;;;;;;;0.97;0.73;;;;;;;;;;20799958;28;20236;-79
2023/08/29 19:35:38;;;;;;;1.07;0.57;;;;;;;;;;20813722;28;20218;-79
2023/08/29 19:45:39;;;;;;;0.90;0.60;;;;;;;;;;20789271;28;20300;-81
2023/08/29 19:55:42;;;;;;;0.73;0.60;;;;;;;;;;20797694;28;20235;-81
2023/08/29 20:05:44;;;;;;;1.73;0.83;;;;;;;;;;20791552;28;20766;-81
2023/08/29 20:15:46;;;;;;;0.83;0.50;;;;;;;;;;20802331;28;20695;-83
2023/08/29 20:25:48;;;;;;;3.50;1.00;;;;;;;;;;20812408;28;20330;-81
2023/08/29 20:35:49;;;;;;;1.03;0.50;;;;;;;;;;20789055;28;20214;-80
2023/08/29 20:45:51;;;;;;;0.43;0.33;;;;;;;;;;20765353;28;20241;-80
2023/08/29 20:55:53;;;;;;;1.10;0.60;;;;;;;;;;20800403;28;20277;-81
2023/08/29 21:05:54;;;;;;;1.53;0.63;;;;;;;;;;20802396;28;20292;-82
2023/08/29 21:15:56;;;;;;;0.73;0.50;;;;;;;;;;20779154;28;20218;-81
2023/08/29 21:25:58;;;;;;;0.83;0.53;;;;;;;;;;20766531;28;20924;-81
2023/08/29 21:35:59;;;;;;;0.57;0.50;;;;;;;;;;20789209;28;20289;-81
2023/08/29 21:46:08;;;;;;;0.80;0.60;;;;;;;;;;20782075;28;20242;-82
2023/08/29 21:56:10;;;;;;;1.07;0.50;;;;;;;;;;20831160;28;20223;-82
2023/08/29 22:06:12;;;;;;;1.10;0.77;;;;;;;;;;20774706;28;20262;-82
2023/08/29 22:16:14;;;;;;;4.17;0.60;;;;;;;;;;20809978;28;20222;-80
2023/08/29 22:26:17;;;;;;;2.17;0.50;;;;;;;;;;20804898;28;20260;-80
2023/08/29 22:36:19;;;;;;;0.40;0.40;;;;;;;;;;20779182;28;20219;-81
2023/08/29 22:46:20;;;;;;;0.90;0.50;;;;;;;;;;20821433;28;20272;-81
2023/08/29 22:56:22;;;;;;;0.93;0.60;;;;;;;;;;20796091;28;20219;-82
2023/08/29 23:06:24;;;;;;;0.63;0.40;;;;;;;;;;20799483;28;20247;-82
2023/08/29 23:16:25;;;;;;;1.23;0.50;;;;;;;;;;20795798;28;20211;-81
2023/08/29 23:26:27;;;;;;;0.90;0.70;;;;;;;;;;20815376;28;20248;-81
2023/08/29 23:36:29;;;;;;;1.70;0.53;;;;;;;;;;20812561;28;20230;-83
2023/08/29 23:46:30;;;;;;;0.80;0.50;;;;;;;;;;20792017;28;20235;-81
2023/08/29 23:56:32;;;;;;;0.90;0.50;;;;;;;;;;20807804;28;20299;-82
